Terminal Aerodrome Forecast
Issued by NWS

Home | Current Version | Previous Version | Text Only | Print | Product List | Glossary On
Versions: 1 2 3 4 5 6 7 8 9 10 11 12 13 14 15 16 17 18 19 20 21 22
000
FTUS41 KPBZ 030500
TAFLBE
TAF
KLBE 030520Z 0306/0406 VRB05KT P6SM BKN150
     FM031900 17008KT 5SM -FZRA OVC025
     FM032100 17010KT 3SM -RA OVC015
     FM040100 20005KT 2SM -RA BR OVC005 WS020/23045KT=

USA.gov is the U.S. government's official web portal to all federal, state and local government web resources and services.